createdAt,value
2018-08-23T00:00:04.578Z,0
2018-08-23T00:01:04.433Z,0
2018-08-23T00:02:05.206Z,0
2018-08-23T00:03:04.852Z,0
2018-08-23T00:04:04.763Z,0
2018-08-23T00:05:04.484Z,0
2018-08-23T00:06:03.999Z,0
2018-08-23T00:07:04.841Z,0
2018-08-23T00:08:04.735Z,0
2018-08-23T00:09:04.678Z,0
2018-08-23T00:10:04.726Z,0
2018-08-23T00:11:04.504Z,0
2018-08-23T00:12:04.179Z,0
2018-08-23T00:13:04.884Z,0
2018-08-23T00:14:04.648Z,0
2018-08-23T00:15:04.227Z,0
2018-08-23T00:16:25.469Z,0
2018-08-23T00:17:26.107Z,0
2018-08-23T00:18:25.714Z,0
2018-08-23T00:19:26.607Z,0
2018-08-23T00:20:26.372Z,0
2018-08-23T00:21:26.276Z,0
2018-08-23T00:22:26.078Z,0
2018-08-23T00:23:25.983Z,0
2018-08-23T00:24:25.968Z,0
2018-08-23T00:25:25.546Z,0
2018-08-23T00:26:26.280Z,0
2018-08-23T00:27:25.717Z,0
2018-08-23T00:28:26.435Z,0
2018-08-23T00:29:26.230Z,0
2018-08-23T00:30:25.939Z,0
2018-08-23T00:31:25.557Z,0
2018-08-23T00:32:47.827Z,0
2018-08-23T00:33:48.759Z,0
2018-08-23T00:34:48.393Z,0
2018-08-23T00:35:48.367Z,0
2018-08-23T00:36:47.887Z,0
2018-08-23T00:37:48.611Z,0
2018-08-23T00:38:48.245Z,0
2018-08-23T00:39:48.216Z,0
2018-08-23T00:40:47.763Z,0
2018-08-23T00:41:48.349Z,0
2018-08-23T00:42:47.876Z,0
2018-08-23T00:43:48.603Z,0
2018-08-23T00:44:48.009Z,0
2018-08-23T00:45:48.605Z,0
2018-08-23T00:46:48.186Z,0
2018-08-23T00:47:47.845Z,0
2018-08-23T00:48:48.744Z,0
2018-08-23T00:49:48.276Z,0
2018-08-23T00:50:48.126Z,0
2018-08-23T00:52:09.918Z,0
2018-08-23T00:53:31.875Z,0
2018-08-23T00:54:32.734Z,0
2018-08-23T00:55:32.465Z,0
2018-08-23T00:56:32.216Z,0
2018-08-23T00:57:53.750Z,0
2018-08-23T00:58:54.417Z,0
2018-08-23T00:59:54.072Z,0
2018-08-23T01:00:54.665Z,0
2018-08-23T01:01:54.147Z,0
2018-08-23T01:02:53.757Z,0
2018-08-23T01:04:15.953Z,0
2018-08-23T01:05:16.540Z,0
2018-08-23T01:06:16.608Z,0
2018-08-23T01:07:16.266Z,0
2018-08-23T01:08:16.071Z,0
2018-08-23T01:09:16.582Z,0
2018-08-23T01:10:38.711Z,0
2018-08-23T01:12:01.041Z,0
2018-08-23T01:13:03.070Z,0
2018-08-23T01:14:01.737Z,0
2018-08-23T01:15:01.306Z,0
2018-08-23T01:16:01.867Z,0
2018-08-23T01:17:01.600Z,0
2018-08-23T01:18:22.800Z,0
2018-08-23T01:19:23.274Z,0
2018-08-23T01:20:22.900Z,0
2018-08-23T01:22:06.338Z,0
2018-08-23T01:23:27.790Z,0
2018-08-23T01:24:28.534Z,0
2018-08-23T01:25:27.966Z,0
2018-08-23T01:26:27.791Z,0
2018-08-23T01:27:28.336Z,0
2018-08-23T01:28:27.815Z,0
2018-08-23T01:29:28.640Z,0
2018-08-23T01:30:28.270Z,0
2018-08-23T01:31:28.062Z,0
2018-08-23T01:32:28.765Z,0
2018-08-23T01:33:28.266Z,0
2018-08-23T01:34:27.774Z,0
2018-08-23T01:35:28.441Z,0
2018-08-23T01:36:28.355Z,0
2018-08-23T01:37:27.889Z,0
2018-08-23T01:38:28.494Z,0
2018-08-23T01:39:28.198Z,0
2018-08-23T01:40:27.775Z,0
2018-08-23T01:41:28.727Z,0
2018-08-23T01:42:28.292Z,0
2018-08-23T01:43:28.085Z,0
2018-08-23T01:44:27.948Z,0
2018-08-23T01:45:28.752Z,0
2018-08-23T01:46:28.600Z,0
2018-08-23T01:47:28.207Z,0
2018-08-23T01:48:27.750Z,0
2018-08-23T01:49:28.441Z,0
2018-08-23T01:50:28.212Z,0
2018-08-23T01:51:28.149Z,0
2018-08-23T01:52:28.616Z,0
2018-08-23T01:53:28.140Z,0
2018-08-23T01:54:28.279Z,0
2018-08-23T01:55:27.790Z,0
2018-08-23T01:56:28.450Z,0
2018-08-23T01:57:28.333Z,0
2018-08-23T01:58:28.058Z,0
2018-08-23T01:59:27.882Z,0
2018-08-23T02:00:28.466Z,0
2018-08-23T02:01:28.146Z,0
2018-08-23T02:02:27.760Z,0
2018-08-23T02:03:28.488Z,0
2018-08-23T02:04:49.458Z,0
2018-08-23T02:05:49.964Z,0
2018-08-23T02:07:32.078Z,0
2018-08-23T02:08:32.779Z,0
2018-08-23T02:09:32.367Z,0
2018-08-23T02:10:33.177Z,0
2018-08-23T02:11:33.243Z,0
2018-08-23T02:12:32.791Z,0
2018-08-23T02:13:32.184Z,0
2018-08-23T02:14:54.579Z,0
2018-08-23T02:15:55.322Z,0
2018-08-23T02:16:54.948Z,0
2018-08-23T02:17:54.786Z,0
2018-08-23T02:18:54.429Z,0
2018-08-23T02:19:54.986Z,0
2018-08-23T02:20:54.961Z,0
2018-08-23T02:22:06.949Z,0
2018-08-23T02:22:54.611Z,0
2018-08-23T02:23:55.341Z,0
2018-08-23T02:25:16.241Z,0
2018-08-23T02:26:16.783Z,0
2018-08-23T02:27:16.287Z,0
2018-08-23T02:28:17.142Z,0
2018-08-23T02:29:59.751Z,0
2018-08-23T02:31:00.472Z,0
2018-08-23T02:32:00.281Z,0
2018-08-23T02:32:59.952Z,0
2018-08-23T02:34:00.908Z,0
2018-08-23T02:35:00.482Z,0
2018-08-23T02:36:22.087Z,0
2018-08-23T02:37:22.657Z,0
2018-08-23T02:38:22.540Z,0
2018-08-23T02:39:22.135Z,0
2018-08-23T02:40:21.984Z,0
2018-08-23T02:41:22.734Z,0
2018-08-23T02:42:22.302Z,0
2018-08-23T02:43:21.983Z,0
2018-08-23T02:44:22.480Z,0
2018-08-23T02:45:22.104Z,0
2018-08-23T02:46:21.853Z,0
2018-08-23T02:47:22.527Z,0
2018-08-23T02:49:05.079Z,0
2018-08-23T02:50:05.758Z,0
2018-08-23T02:51:05.397Z,0
2018-08-23T02:52:05.915Z,0
2018-08-23T02:53:05.514Z,0
2018-08-23T02:54:05.364Z,0
2018-08-23T02:55:06.360Z,0
2018-08-23T02:56:05.873Z,0
2018-08-23T02:57:05.331Z,0
2018-08-23T02:58:05.920Z,0
2018-08-23T02:59:05.556Z,0
2018-08-23T03:00:05.544Z,0
2018-08-23T03:01:05.565Z,0
2018-08-23T03:02:06.151Z,0
2018-08-23T03:03:05.822Z,0
2018-08-23T03:04:05.727Z,0
2018-08-23T03:05:05.456Z,0
2018-08-23T03:06:05.131Z,0
2018-08-23T03:07:05.719Z,0
2018-08-23T03:08:05.128Z,0
2018-08-23T03:09:06.092Z,0
2018-08-23T03:10:05.939Z,0
2018-08-23T03:11:05.543Z,0
2018-08-23T03:12:05.281Z,0
2018-08-23T03:13:06.264Z,0
2018-08-23T03:14:05.986Z,0
2018-08-23T03:15:05.780Z,0
2018-08-23T03:16:05.452Z,0
2018-08-23T03:17:05.977Z,0
2018-08-23T03:18:05.769Z,0
2018-08-23T03:19:05.376Z,0
2018-08-23T03:20:18.202Z,0
2018-08-23T03:21:05.694Z,0
2018-08-23T03:22:05.379Z,0
2018-08-23T03:23:05.165Z,0
2018-08-23T03:24:06.179Z,0
2018-08-23T03:25:05.879Z,0
2018-08-23T03:26:05.538Z,0
2018-08-23T03:27:05.206Z,0
2018-08-23T03:28:05.796Z,0
2018-08-23T03:29:05.425Z,0
2018-08-23T03:30:06.116Z,0
2018-08-23T03:31:23.760Z,0
2018-08-23T03:32:25.800Z,0
2018-08-23T03:33:46.677Z,0
2018-08-23T03:34:47.378Z,0
2018-08-23T03:35:47.347Z,0
2018-08-23T03:36:47.223Z,0
2018-08-23T03:37:47.160Z,0
2018-08-23T03:38:46.748Z,0
2018-08-23T03:39:46.525Z,0
2018-08-23T03:40:46.122Z,0
2018-08-23T03:41:46.948Z,0
2018-08-23T03:42:46.409Z,0
2018-08-23T03:44:07.987Z,0
2018-08-23T03:45:08.897Z,0
2018-08-23T03:46:08.788Z,0
2018-08-23T03:47:08.594Z,0
2018-08-23T03:48:08.342Z,0
2018-08-23T03:49:09.053Z,0
2018-08-23T03:50:08.392Z,0
2018-08-23T03:51:30.061Z,0
2018-08-23T03:52:30.850Z,0
2018-08-23T03:53:30.459Z,0
2018-08-23T03:55:34.070Z,0
2018-08-23T03:56:35.091Z,0
2018-08-23T03:57:56.480Z,0
2018-08-23T03:58:56.449Z,0
2018-08-23T03:59:56.342Z,0
2018-08-23T04:00:56.912Z,0
2018-08-23T04:01:57.325Z,0
2018-08-23T04:02:57.243Z,0
2018-08-23T04:03:56.722Z,0
2018-08-23T04:04:56.588Z,0
2018-08-23T04:05:56.087Z,0
2018-08-23T04:06:56.795Z,0
2018-08-23T04:07:56.344Z,0
2018-08-23T04:09:18.496Z,0
2018-08-23T04:10:18.998Z,0
2018-08-23T04:11:18.778Z,0
2018-08-23T04:12:19.384Z,0
2018-08-23T04:13:18.901Z,0
2018-08-23T04:15:03.120Z,0
2018-08-23T04:16:03.838Z,0
2018-08-23T04:17:03.781Z,0
2018-08-23T04:18:03.712Z,1
2018-08-23T04:19:03.376Z,1
2018-08-23T04:20:04.196Z,1
2018-08-23T04:21:03.878Z,1
2018-08-23T04:22:03.820Z,1
2018-08-23T04:23:03.395Z,1
2018-08-23T04:24:04.246Z,1
2018-08-23T04:25:03.989Z,2
2018-08-23T04:26:03.609Z,2
2018-08-23T04:27:03.443Z,2
2018-08-23T04:28:04.024Z,2
2018-08-23T04:29:03.509Z,2
2018-08-23T04:30:04.316Z,2
2018-08-23T04:31:04.028Z,2
2018-08-23T04:32:03.677Z,3
2018-08-23T04:33:03.681Z,3
2018-08-23T04:34:03.560Z,3
2018-08-23T04:35:03.442Z,3
2018-08-23T04:36:04.243Z,3
2018-08-23T04:37:04.049Z,3
2018-08-23T04:38:03.633Z,3
2018-08-23T04:39:24.854Z,4
2018-08-23T04:40:25.484Z,4
2018-08-23T04:41:25.467Z,4
2018-08-23T04:42:25.174Z,5
2018-08-23T04:43:25.852Z,5
2018-08-23T04:44:25.530Z,5
2018-08-23T04:45:25.357Z,5
2018-08-23T04:46:25.174Z,5
2018-08-23T04:47:25.915Z,6
2018-08-23T04:48:25.709Z,6
2018-08-23T04:49:25.704Z,6
2018-08-23T04:50:25.300Z,7
2018-08-23T04:51:46.899Z,7
2018-08-23T04:52:47.082Z,7
2018-08-23T04:53:46.829Z,8
2018-08-23T04:54:46.518Z,8
2018-08-23T04:55:47.474Z,9
2018-08-23T04:56:47.169Z,9
2018-08-23T04:57:47.456Z,10
2018-08-23T04:59:08.731Z,11
2018-08-23T05:00:08.718Z,11
2018-08-23T05:01:08.572Z,11
2018-08-23T05:02:31.329Z,12
2018-08-23T05:03:31.388Z,13
2018-08-23T05:04:31.477Z,13
2018-08-23T05:05:31.274Z,14
2018-08-23T05:06:31.499Z,14
2018-08-23T05:07:31.733Z,14
2018-08-23T05:08:31.664Z,14
2018-08-23T05:09:31.846Z,15
2018-08-23T05:10:32.157Z,16
2018-08-23T05:11:32.302Z,17
2018-08-23T05:12:31.928Z,17
2018-08-23T05:13:54.176Z,18
2018-08-23T05:14:54.852Z,19
2018-08-23T05:15:54.920Z,19
2018-08-23T05:16:54.453Z,20
2018-08-23T05:17:54.158Z,21
2018-08-23T05:18:55.370Z,22
2018-08-23T05:19:54.043Z,22
2018-08-23T05:21:16.115Z,23
2018-08-23T05:22:16.915Z,24
2018-08-23T05:23:16.796Z,24
2018-08-23T05:24:16.538Z,24
2018-08-23T05:25:16.581Z,26
2018-08-23T05:26:16.235Z,28
2018-08-23T05:27:37.817Z,30
2018-08-23T05:28:38.164Z,30
2018-08-23T05:29:38.255Z,31
2018-08-23T05:30:59.539Z,31
2018-08-23T05:32:22.212Z,31
2018-08-23T05:33:23.230Z,31
2018-08-23T05:34:23.256Z,32
2018-08-23T05:35:45.223Z,32
2018-08-23T05:36:46.106Z,34
2018-08-23T05:37:45.727Z,35
2018-08-23T05:39:07.311Z,35
2018-08-23T05:40:08.240Z,36
2018-08-23T05:41:08.110Z,34
2018-08-23T05:42:08.206Z,34
2018-08-23T05:43:30.679Z,33
2018-08-23T05:44:31.117Z,33
2018-08-23T05:45:30.222Z,34
2018-08-23T05:46:30.274Z,35
2018-08-23T05:47:30.138Z,35
2018-08-23T05:48:30.138Z,36
2018-08-23T05:49:31.629Z,37
2018-08-23T05:50:53.602Z,38
2018-08-23T05:51:54.706Z,41
2018-08-23T05:52:54.889Z,43
2018-08-23T05:53:53.562Z,45
2018-08-23T05:54:55.601Z,45
2018-08-23T05:55:55.097Z,46
2018-08-23T05:56:54.068Z,46
2018-08-23T05:57:54.167Z,48
2018-08-23T05:58:55.159Z,46
2018-08-23T06:00:37.794Z,47
2018-08-23T06:01:38.790Z,48
2018-08-23T06:02:37.881Z,47
2018-08-23T06:03:38.095Z,48
2018-08-23T06:04:37.996Z,50
2018-08-23T06:06:20.583Z,56
2018-08-23T06:07:43.358Z,59
2018-08-23T06:08:44.368Z,60
2018-08-23T06:09:44.204Z,62
2018-08-23T06:10:44.061Z,60
2018-08-23T06:11:43.978Z,59
2018-08-23T06:12:44.008Z,60
2018-08-23T06:13:43.922Z,59
2018-08-23T06:14:43.996Z,58
2018-08-23T06:15:43.623Z,60
2018-08-23T06:16:43.378Z,59
2018-08-23T06:18:08.029Z,55
2018-08-23T06:19:07.145Z,56
2018-08-23T06:20:06.489Z,56
2018-08-23T06:21:06.651Z,54
2018-08-23T06:22:06.616Z,56
2018-08-23T06:23:06.430Z,54
2018-08-23T06:24:07.342Z,54
2018-08-23T06:25:30.613Z,54
2018-08-23T06:26:29.414Z,58
2018-08-23T06:27:29.373Z,60
2018-08-23T06:28:30.027Z,61
2018-08-23T06:29:31.128Z,66
2018-08-23T06:30:30.293Z,69
2018-08-23T06:31:29.448Z,70
2018-08-23T06:32:29.614Z,72
2018-08-23T06:33:29.724Z,73
2018-08-23T06:34:30.338Z,76
2018-08-23T06:35:29.197Z,78
2018-08-23T06:36:30.267Z,79
2018-08-23T06:37:30.328Z,78
2018-08-23T06:38:29.666Z,80
2018-08-23T06:39:29.542Z,81
2018-08-23T06:40:29.424Z,81
2018-08-23T06:41:29.668Z,76
2018-08-23T06:42:29.640Z,75
2018-08-23T06:43:53.021Z,74
2018-08-23T06:45:15.756Z,80
2018-08-23T06:46:16.956Z,84
2018-08-23T06:47:16.063Z,88
2018-08-23T06:48:16.096Z,88
2018-08-23T06:49:16.166Z,88
2018-08-23T06:50:37.648Z,89
2018-08-23T06:51:38.341Z,94
2018-08-23T06:52:38.490Z,100
2018-08-23T06:53:38.657Z,106
2018-08-23T06:54:38.036Z,102
2018-08-23T06:55:37.925Z,111
2018-08-23T06:56:37.862Z,108
2018-08-23T06:57:37.786Z,119
2018-08-23T06:58:37.941Z,114
2018-08-23T06:59:59.720Z,105
2018-08-23T07:01:22.244Z,112
2018-08-23T07:02:22.231Z,108
2018-08-23T07:03:23.470Z,107
2018-08-23T07:04:22.172Z,114
2018-08-23T07:05:23.090Z,118
2018-08-23T07:06:22.990Z,138
2018-08-23T07:07:23.131Z,165
2018-08-23T07:08:44.618Z,203
2018-08-23T07:09:44.731Z,188
2018-08-23T07:10:44.765Z,166
2018-08-23T07:11:44.668Z,161
2018-08-23T07:12:44.898Z,168
2018-08-23T07:13:44.636Z,157
2018-08-23T07:14:44.604Z,159
2018-08-23T07:15:44.708Z,224
2018-08-23T07:16:44.783Z,217
2018-08-23T07:17:44.521Z,215
2018-08-23T07:18:44.407Z,171
2018-08-23T07:19:45.320Z,175
2018-08-23T07:20:44.927Z,215
2018-08-23T07:21:45.027Z,185
2018-08-23T07:22:44.928Z,187
2018-08-23T07:23:44.634Z,210
2018-08-23T07:24:44.427Z,237
2018-08-23T07:25:45.578Z,264
2018-08-23T07:26:44.499Z,261
2018-08-23T07:27:44.714Z,252
2018-08-23T07:28:44.520Z,213
2018-08-23T07:29:45.305Z,198
2018-08-23T07:30:44.880Z,190
2018-08-23T07:32:28.075Z,172
2018-08-23T07:33:27.875Z,164
2018-08-23T07:34:27.825Z,158
2018-08-23T07:35:28.782Z,214
2018-08-23T07:36:28.676Z,181
2018-08-23T07:37:28.622Z,175
2018-08-23T07:38:50.042Z,208
2018-08-23T07:39:51.328Z,268
2018-08-23T07:40:50.495Z,295
2018-08-23T07:41:50.601Z,317
2018-08-23T07:42:50.775Z,323
2018-08-23T07:43:50.646Z,312
2018-08-23T07:44:51.524Z,175
2018-08-23T07:46:33.627Z,303
2018-08-23T07:47:34.380Z,341
2018-08-23T07:48:34.530Z,356
2018-08-23T07:49:34.526Z,352
2018-08-23T07:50:34.419Z,359
2018-08-23T07:51:34.450Z,347
2018-08-23T07:52:34.528Z,355
2018-08-23T07:53:34.843Z,364
2018-08-23T07:54:33.723Z,364
2018-08-23T07:55:34.530Z,376
2018-08-23T07:56:34.349Z,371
2018-08-23T07:57:34.311Z,371
2018-08-23T07:58:56.053Z,379
2018-08-23T07:59:57.221Z,386
2018-08-23T08:00:56.390Z,398
2018-08-23T08:01:56.196Z,410
2018-08-23T08:02:56.286Z,394
2018-08-23T08:03:56.332Z,401
2018-08-23T08:04:56.287Z,416
2018-08-23T08:05:56.160Z,410
2018-08-23T08:06:56.370Z,425
2018-08-23T08:07:56.274Z,423
2018-08-23T08:08:56.236Z,440
2018-08-23T08:09:55.997Z,433
2018-08-23T08:10:56.858Z,442
2018-08-23T08:12:18.282Z,265
2018-08-23T08:13:19.617Z,434
2018-08-23T08:14:18.266Z,439
2018-08-23T08:15:19.557Z,463
2018-08-23T08:16:18.805Z,470
2018-08-23T08:17:18.847Z,470
2018-08-23T08:18:19.317Z,504
2018-08-23T08:19:19.428Z,231
2018-08-23T08:20:19.173Z,501
2018-08-23T08:21:19.350Z,499
2018-08-23T08:22:42.077Z,503
2018-08-23T08:23:41.375Z,478
2018-08-23T08:24:41.218Z,346
2018-08-23T08:25:40.927Z,346
2018-08-23T08:27:04.128Z,375
2018-08-23T08:28:04.241Z,412
2018-08-23T08:29:04.137Z,258
2018-08-23T08:30:04.395Z,433
2018-08-23T08:31:04.183Z,154
2018-08-23T08:32:04.114Z,458
2018-08-23T08:33:04.037Z,187
2018-08-23T08:34:25.942Z,437
2018-08-23T08:35:25.778Z,509
2018-08-23T08:36:26.484Z,457
2018-08-23T08:37:26.664Z,389
2018-08-23T08:38:25.471Z,504
2018-08-23T08:39:25.812Z,468
2018-08-23T08:41:08.982Z,414
2018-08-23T08:42:09.779Z,495
2018-08-23T08:43:32.637Z,237
2018-08-23T08:44:31.758Z,480
2018-08-23T08:45:31.413Z,482
2018-08-23T08:46:32.218Z,500
2018-08-23T08:47:32.218Z,256
2018-08-23T08:48:32.422Z,489
2018-08-23T08:49:32.584Z,455
2018-08-23T08:50:32.731Z,517
2018-08-23T08:51:31.976Z,531
2018-08-23T08:52:53.524Z,518
2018-08-23T08:53:54.261Z,513
2018-08-23T08:54:54.258Z,500
2018-08-23T08:55:54.118Z,569
2018-08-23T08:56:54.517Z,261
2018-08-23T08:57:54.829Z,466
2018-08-23T08:58:54.492Z,541
2018-08-23T08:59:55.405Z,520
2018-08-23T09:01:39.488Z,443
2018-08-23T09:02:40.546Z,539
2018-08-23T09:03:39.526Z,589
2018-08-23T09:04:39.334Z,597
2018-08-23T09:05:40.509Z,495
2018-08-23T09:06:41.205Z,244
2018-08-23T09:07:40.256Z,524
2018-08-23T09:08:40.177Z,443
2018-08-23T09:09:40.025Z,530
2018-08-23T09:11:02.079Z,530
2018-08-23T09:12:02.201Z,561
2018-08-23T09:13:02.182Z,476
2018-08-23T09:14:02.251Z,282
2018-08-23T09:15:02.071Z,578
2018-08-23T09:16:01.777Z,619
2018-08-23T09:17:01.645Z,560
2018-08-23T09:18:02.557Z,577
2018-08-23T09:19:02.411Z,272
2018-08-23T09:20:02.348Z,493
2018-08-23T09:21:23.993Z,367
2018-08-23T09:22:24.074Z,554
2018-08-23T09:23:24.899Z,552
2018-08-23T09:24:24.984Z,573
2018-08-23T09:25:25.048Z,523
2018-08-23T09:26:23.774Z,498
2018-08-23T09:27:24.764Z,557
2018-08-23T09:28:47.151Z,571
2018-08-23T09:29:47.476Z,531
2018-08-23T09:30:47.194Z,539
2018-08-23T09:31:47.662Z,561
2018-08-23T09:32:47.551Z,580
2018-08-23T09:33:47.807Z,587
2018-08-23T09:34:47.741Z,605
2018-08-23T09:35:47.819Z,576
2018-08-23T09:36:47.007Z,545
2018-08-23T09:37:46.952Z,547
2018-08-23T09:38:47.172Z,545
2018-08-23T09:39:46.958Z,539
2018-08-23T09:40:46.850Z,514
2018-08-23T09:41:47.599Z,542
2018-08-23T09:42:47.859Z,531
2018-08-23T09:43:47.932Z,553
2018-08-23T09:44:47.020Z,571
2018-08-23T09:45:46.898Z,552
2018-08-23T09:47:31.331Z,552
2018-08-23T09:48:53.963Z,576
2018-08-23T09:49:54.072Z,560
2018-08-23T09:50:54.376Z,555
2018-08-23T09:51:53.505Z,574
2018-08-23T09:52:53.607Z,606
2018-08-23T09:53:53.755Z,609
2018-08-23T09:54:54.000Z,612
2018-08-23T09:56:15.846Z,634
2018-08-23T09:57:16.018Z,615
2018-08-23T09:58:59.615Z,552
2018-08-23T10:00:00.425Z,592
2018-08-23T10:01:00.946Z,580
2018-08-23T10:02:00.699Z,583
2018-08-23T10:03:22.665Z,389
2018-08-23T10:04:22.752Z,523
2018-08-23T10:05:22.567Z,550
2018-08-23T10:06:23.733Z,563
2018-08-23T10:07:22.921Z,547
2018-08-23T10:08:23.123Z,227
2018-08-23T10:09:23.293Z,538
2018-08-23T10:10:23.537Z,553
2018-08-23T10:11:24.009Z,192
2018-08-23T10:12:23.277Z,563
2018-08-23T10:13:23.095Z,414
2018-08-23T10:14:23.038Z,555
2018-08-23T10:15:45.647Z,529
2018-08-23T10:16:46.057Z,524
2018-08-23T10:17:46.238Z,629
2018-08-23T10:18:45.374Z,618
2018-08-23T10:19:46.284Z,622
2018-08-23T10:20:46.469Z,618
2018-08-23T10:21:45.770Z,578
2018-08-23T10:22:46.030Z,566
2018-08-23T10:23:45.835Z,589
2018-08-23T10:24:45.769Z,640
2018-08-23T10:25:46.046Z,625
2018-08-23T10:26:46.314Z,600
2018-08-23T10:27:45.982Z,570
2018-08-23T10:28:46.197Z,613
2018-08-23T10:29:46.118Z,384
2018-08-23T10:30:46.455Z,284
2018-08-23T10:31:45.380Z,274
2018-08-23T10:32:46.460Z,437
2018-08-23T10:33:45.659Z,237
2018-08-23T10:34:45.475Z,221
2018-08-23T10:35:45.393Z,246
2018-08-23T10:36:46.063Z,253
2018-08-23T10:37:46.191Z,591
2018-08-23T10:38:45.008Z,591
2018-08-23T10:40:07.988Z,555
2018-08-23T10:41:07.879Z,308
2018-08-23T10:42:07.731Z,582
2018-08-23T10:43:08.499Z,292
2018-08-23T10:44:51.926Z,311
2018-08-23T10:46:14.433Z,352
2018-08-23T10:47:15.321Z,337
2018-08-23T10:48:37.018Z,368
2018-08-23T10:49:37.649Z,248
2018-08-23T10:50:37.695Z,430
2018-08-23T10:51:37.612Z,287
2018-08-23T10:52:37.335Z,244
2018-08-23T10:53:37.223Z,235
2018-08-23T10:54:37.136Z,304
2018-08-23T10:55:37.366Z,264
2018-08-23T10:56:37.271Z,277
2018-08-23T10:57:37.098Z,573
2018-08-23T10:58:58.909Z,371
2018-08-23T10:59:58.886Z,539
2018-08-23T11:00:58.802Z,320
2018-08-23T11:01:58.871Z,579
2018-08-23T11:03:20.376Z,283
2018-08-23T11:04:21.101Z,262
2018-08-23T11:05:21.200Z,396
2018-08-23T11:06:21.170Z,279
2018-08-23T11:07:20.892Z,320
2018-08-23T11:08:20.933Z,253
2018-08-23T11:09:20.932Z,220
2018-08-23T11:10:21.415Z,254
2018-08-23T11:11:21.294Z,482
2018-08-23T11:12:21.394Z,601
2018-08-23T11:13:21.015Z,313
2018-08-23T11:14:21.152Z,445
2018-08-23T11:15:42.548Z,336
2018-08-23T11:16:43.841Z,300
2018-08-23T11:17:42.717Z,612
2018-08-23T11:19:05.192Z,594
2018-08-23T11:20:05.305Z,366
2018-08-23T11:21:06.143Z,299
2018-08-23T11:22:05.936Z,635
2018-08-23T11:23:05.614Z,568
2018-08-23T11:24:05.576Z,612
2018-08-23T11:25:06.118Z,253
2018-08-23T11:26:06.424Z,247
2018-08-23T11:27:05.335Z,317
2018-08-23T11:28:05.160Z,403
2018-08-23T11:29:50.753Z,316
2018-08-23T11:30:50.562Z,262
2018-08-23T11:31:50.379Z,343
2018-08-23T11:32:50.268Z,246
2018-08-23T11:33:50.165Z,238
2018-08-23T11:34:50.140Z,572
2018-08-23T11:35:52.730Z,609
2018-08-23T11:37:11.791Z,548
2018-08-23T11:38:11.803Z,584
2018-08-23T11:39:11.866Z,606
2018-08-23T11:40:11.742Z,618
2018-08-23T11:41:11.483Z,621
2018-08-23T11:42:11.447Z,412
2018-08-23T11:43:33.070Z,387
2018-08-23T11:45:19.663Z,575
2018-08-23T11:46:19.967Z,247
2018-08-23T11:48:04.416Z,243
2018-08-23T11:49:05.205Z,238
2018-08-23T11:50:04.018Z,265
2018-08-23T11:51:04.791Z,576
2018-08-23T11:52:48.012Z,617
2018-08-23T11:54:10.562Z,504
2018-08-23T11:55:11.497Z,413
2018-08-23T11:56:12.234Z,547
2018-08-23T11:57:11.233Z,376
2018-08-23T11:58:33.075Z,261
2018-08-23T11:59:54.845Z,317
2018-08-23T12:00:54.856Z,226
2018-08-23T12:02:39.100Z,554
2018-08-23T12:03:40.182Z,525
2018-08-23T12:04:39.226Z,317
2018-08-23T12:06:00.628Z,436
2018-08-23T12:07:01.458Z,585
2018-08-23T12:08:01.590Z,611
2018-08-23T12:09:01.902Z,587
2018-08-23T12:10:02.367Z,552
2018-08-23T12:11:01.599Z,311
2018-08-23T12:12:01.481Z,569
2018-08-23T12:13:01.453Z,583
2018-08-23T12:14:22.868Z,534
2018-08-23T12:15:24.013Z,520
2018-08-23T12:16:23.027Z,288
2018-08-23T12:17:23.665Z,345
2018-08-23T12:18:45.256Z,612
2018-08-23T12:19:46.619Z,649
2018-08-23T12:20:46.828Z,646
2018-08-23T12:22:08.606Z,559
2018-08-23T12:23:08.702Z,270
2018-08-23T12:24:07.701Z,559
2018-08-23T12:25:07.849Z,567
2018-08-23T12:26:08.945Z,269
2018-08-23T12:27:08.745Z,221
2018-08-23T12:28:07.660Z,214
2018-08-23T12:29:08.966Z,255
2018-08-23T12:30:10.339Z,334
2018-08-23T12:31:09.220Z,558
2018-08-23T12:32:29.736Z,482
2018-08-23T12:33:29.695Z,242
2018-08-23T12:34:53.114Z,526
2018-08-23T12:35:53.348Z,522
2018-08-23T12:36:52.401Z,253
2018-08-23T12:37:53.868Z,371
2018-08-23T12:38:53.417Z,290
2018-08-23T12:39:53.120Z,505
2018-08-23T12:41:15.373Z,547
2018-08-23T12:42:37.118Z,529
2018-08-23T12:43:37.789Z,530
2018-08-23T12:44:38.369Z,542
2018-08-23T12:45:37.346Z,527
2018-08-23T12:46:37.283Z,519
2018-08-23T12:47:37.751Z,253
2018-08-23T12:48:37.733Z,498
2018-08-23T12:49:39.326Z,558
2018-08-23T12:50:40.172Z,298
2018-08-23T12:51:59.668Z,502
2018-08-23T12:53:00.911Z,316
2018-08-23T12:54:00.089Z,254
2018-08-23T12:55:01.645Z,362
2018-08-23T12:56:00.884Z,288
2018-08-23T12:56:59.918Z,433
2018-08-23T12:58:01.609Z,518
2018-08-23T12:58:59.676Z,234
2018-08-23T12:59:59.990Z,209
2018-08-23T13:01:22.883Z,429
2018-08-23T13:02:22.111Z,486
2018-08-23T13:03:22.350Z,575
2018-08-23T13:04:22.498Z,292
2018-08-23T13:05:24.161Z,291
2018-08-23T13:06:22.700Z,500
2018-08-23T13:07:22.108Z,526
2018-08-23T13:08:22.904Z,502
2018-08-23T13:09:22.610Z,518
2018-08-23T13:10:45.247Z,481
2018-08-23T13:11:45.868Z,494
2018-08-23T13:13:08.086Z,498
2018-08-23T13:14:07.304Z,510
2018-08-23T13:15:07.272Z,515
2018-08-23T13:16:08.697Z,503
2018-08-23T13:17:07.998Z,478
2018-08-23T13:18:08.315Z,514
2018-08-23T13:19:07.804Z,484
2018-08-23T13:20:07.960Z,493
2018-08-23T13:21:29.572Z,505
2018-08-23T13:22:30.386Z,300
2018-08-23T13:23:52.662Z,304
2018-08-23T13:24:53.816Z,236
2018-08-23T13:26:14.895Z,522
2018-08-23T13:27:14.654Z,453
2018-08-23T13:28:15.442Z,527
2018-08-23T13:29:16.425Z,319
2018-08-23T13:30:37.633Z,210
2018-08-23T13:31:37.586Z,193
2018-08-23T13:32:37.816Z,452
2018-08-23T13:33:38.397Z,513
2018-08-23T13:34:37.225Z,490
2018-08-23T13:36:21.795Z,469
2018-08-23T13:37:21.888Z,471
2018-08-23T13:38:21.990Z,474
2018-08-23T13:39:22.267Z,465
2018-08-23T13:40:22.181Z,353
2018-08-23T13:41:22.176Z,443
2018-08-23T13:42:22.183Z,455
2018-08-23T13:43:22.753Z,465
2018-08-23T13:44:43.785Z,208
2018-08-23T13:46:52.993Z,365
2018-08-23T13:47:52.540Z,242
2018-08-23T13:48:52.462Z,371
2018-08-23T13:49:51.539Z,254
2018-08-23T13:50:51.811Z,289
2018-08-23T13:53:19.721Z,248
2018-08-23T13:55:06.017Z,443
2018-08-23T13:56:06.914Z,326
2018-08-23T13:57:06.976Z,233
2018-08-23T13:58:29.433Z,478
2018-08-23T13:59:29.728Z,451
2018-08-23T14:00:30.107Z,437
2018-08-23T14:01:51.805Z,474
2018-08-23T14:02:52.001Z,434
2018-08-23T14:03:51.949Z,445
2018-08-23T14:05:14.613Z,458
2018-08-23T14:06:14.627Z,452
2018-08-23T14:07:58.993Z,433
2018-08-23T14:08:59.003Z,428
2018-08-23T14:09:58.543Z,412
2018-08-23T14:11:32.425Z,190
2018-08-23T14:12:32.770Z,425
2018-08-23T14:13:32.856Z,467
2018-08-23T14:14:33.452Z,455
2018-08-23T14:15:33.394Z,267
2018-08-23T14:16:33.535Z,401
2018-08-23T14:17:32.974Z,416
2018-08-23T14:18:54.573Z,411
2018-08-23T14:19:54.854Z,388
2018-08-23T14:20:56.230Z,391
2018-08-23T14:21:56.527Z,413
2018-08-23T14:22:54.933Z,419
2018-08-23T14:23:56.383Z,413
2018-08-23T14:24:55.227Z,387
2018-08-23T14:25:55.556Z,407
2018-08-23T14:26:55.444Z,223
2018-08-23T14:27:56.205Z,396
2018-08-23T14:29:17.689Z,208
2018-08-23T14:30:39.915Z,440
2018-08-23T14:31:40.315Z,399
2018-08-23T14:32:40.054Z,313
2018-08-23T14:33:40.330Z,416
2018-08-23T14:35:02.270Z,397
2018-08-23T14:36:04.038Z,408
2018-08-23T14:37:04.024Z,409
2018-08-23T14:38:26.049Z,395
2018-08-23T14:39:26.952Z,382
2018-08-23T14:40:25.148Z,404
2018-08-23T14:41:25.778Z,419
2018-08-23T14:42:25.796Z,415
2018-08-23T14:43:25.037Z,404
2018-08-23T14:44:25.918Z,390
2018-08-23T14:45:25.974Z,376
2018-08-23T14:46:25.462Z,339
2018-08-23T14:48:32.971Z,234
2018-08-23T14:49:42.556Z,374
2018-08-23T14:51:19.776Z,376
2018-08-23T14:52:34.977Z,382
2018-08-23T14:53:18.628Z,381
2018-08-23T14:54:17.859Z,359
2018-08-23T14:55:19.981Z,358
2018-08-23T14:56:18.146Z,361
2018-08-23T14:57:18.704Z,354
2018-08-23T14:58:18.163Z,278
2018-08-23T14:59:18.160Z,331
2018-08-23T15:00:29.578Z,325
2018-08-23T15:01:17.419Z,319
2018-08-23T15:02:20.351Z,318
2018-08-23T15:03:18.409Z,330
2018-08-23T15:04:44.749Z,338
2018-08-23T15:06:06.872Z,178
2018-08-23T15:07:07.285Z,316